Time;durP1;ratioP1;P1;durP2;ratioP2;P2;SDS_P1;SDS_P2;PMS_P1;PMS_P2;Temp;Humidity;BMP_temperature;BMP_pressure;BME280_temperature;BME280_humidity;BME280_pressure;Samples;Min_cycle;Max_cycle;Signal;HPM_P1;HPM_P2
2021/04/24 00:00:14;;;;;;;5.93;3.92;;;14.50;47.10;;;;;;4388534;32;20137;-34
2021/04/24 00:02:42;;;;;;;8.50;3.53;;;14.50;47.30;;;;;;4389826;32;20061;-33
2021/04/24 00:05:25;;;;;;;7.05;2.33;;;14.40;47.30;;;;;;4390258;32;20070;-31
2021/04/24 00:07:58;;;;;;;4.05;2.42;;;14.40;47.40;;;;;;4390164;32;20529;-32
2021/04/24 00:10:24;;;;;;;2.75;2.05;;;14.40;47.40;;;;;;4388580;32;20088;-33
2021/04/24 00:12:51;;;;;;;6.18;2.37;;;14.50;47.40;;;;;;4389875;32;20065;-33
2021/04/24 00:15:17;;;;;;;4.87;2.85;;;14.40;47.40;;;;;;4390156;32;20180;-34
2021/04/24 00:17:44;;;;;;;6.87;3.17;;;14.40;47.50;;;;;;4390034;32;20482;-32
2021/04/24 00:20:13;;;;;;;9.00;3.25;;;14.40;47.50;;;;;;4388460;32;20069;-33
2021/04/24 00:22:41;;;;;;;5.57;3.03;;;14.40;47.30;;;;;;4386294;32;20058;-34
2021/04/24 00:25:08;;;;;;;6.75;2.78;;;14.40;47.10;;;;;;4374490;32;20062;-32
2021/04/24 00:27:35;;;;;;;5.03;2.33;;;14.40;46.90;;;;;;4373263;32;20158;-33
2021/04/24 00:30:02;;;;;;;4.22;2.35;;;14.40;46.80;;;;;;4374459;32;20130;-33
2021/04/24 00:32:28;;;;;;;7.40;2.53;;;14.30;47.00;;;;;;4374469;32;20074;-33
2021/04/24 00:34:55;;;;;;;4.85;2.20;;;14.20;47.20;;;;;;4374654;32;20077;-36
2021/04/24 00:37:21;;;;;;;5.70;1.75;;;14.20;47.60;;;;;;4374427;32;20108;-36
2021/04/24 00:39:47;;;;;;;4.87;2.92;;;14.10;47.70;;;;;;4374293;32;20435;-33
2021/04/24 00:42:14;;;;;;;4.62;2.92;;;14.10;47.90;;;;;;4374027;32;20058;-32
2021/04/24 00:44:50;;;;;;;5.75;2.50;;;14.00;48.00;;;;;;4373997;32;20597;-32
2021/04/24 00:47:21;;;;;;;4.45;2.53;;;14.00;48.30;;;;;;4374426;32;20082;-32
2021/04/24 00:49:47;;;;;;;6.70;2.67;;;14.00;48.40;;;;;;4374618;32;20140;-33
2021/04/24 00:52:14;;;;;;;4.70;2.12;;;14.00;48.40;;;;;;4374117;32;20065;-32
2021/04/24 00:54:41;;;;;;;4.78;3.03;;;14.00;48.70;;;;;;4360518;32;20101;-33
2021/04/24 00:57:07;;;;;;;9.27;2.55;;;14.00;48.80;;;;;;4374348;32;20077;-32
2021/04/24 00:59:36;;;;;;;6.95;2.97;;;14.00;49.00;;;;;;4372541;32;20070;-33
2021/04/24 01:02:03;;;;;;;5.20;2.40;;;14.00;49.10;;;;;;4372774;32;20159;-33
2021/04/24 01:04:30;;;;;;;4.80;2.55;;;14.00;49.10;;;;;;4374262;32;20079;-33
2021/04/24 01:06:56;;;;;;;2.95;1.62;;;14.10;49.00;;;;;;4373770;32;20143;-33
2021/04/24 01:09:23;;;;;;;6.07;2.60;;;14.10;48.90;;;;;;4373850;32;20167;-32
2021/04/24 01:11:50;;;;;;;3.97;2.05;;;14.10;48.90;;;;;;4372817;32;20178;-35
2021/04/24 01:14:16;;;;;;;11.40;3.30;;;14.10;49.00;;;;;;4359895;32;20135;-33
2021/04/24 01:16:43;;;;;;;5.43;3.15;;;14.10;49.00;;;;;;4372631;32;20081;-33
2021/04/24 01:19:14;;;;;;;6.68;2.37;;;14.10;49.10;;;;;;4372051;32;20109;-34
2021/04/24 01:21:41;;;;;;;11.93;4.07;;;14.10;49.20;;;;;;4373616;32;20459;-34
2021/04/24 01:24:10;;;;;;;10.27;3.95;;;14.20;49.40;;;;;;4384787;32;20109;-34
2021/04/24 01:26:36;;;;;;;14.20;6.03;;;14.20;49.30;;;;;;4388867;32;20531;-33
2021/04/24 01:29:04;;;;;;;22.08;8.82;;;14.20;49.20;;;;;;4388589;32;20540;-35
2021/04/24 01:31:37;;;;;;;18.30;8.10;;;14.20;49.20;;;;;;4388683;32;20054;-33
2021/04/24 01:34:05;;;;;;;20.45;10.02;;;14.20;49.20;;;;;;4388827;32;20139;-33
2021/04/24 01:36:32;;;;;;;22.15;11.20;;;14.20;49.20;;;;;;4374548;32;20084;-34
2021/04/24 01:38:58;;;;;;;24.42;12.05;;;14.20;49.20;;;;;;4388303;32;20065;-34
2021/04/24 01:41:25;;;;;;;23.67;11.07;;;14.20;49.10;;;;;;4388746;32;20150;-33
2021/04/24 01:43:55;;;;;;;26.80;12.18;;;14.20;48.80;;;;;;4387560;32;20090;-35
2021/04/24 01:46:22;;;;;;;24.52;11.25;;;14.20;48.90;;;;;;4388374;32;20097;-32
2021/04/24 01:48:50;;;;;;;24.92;12.02;;;14.10;48.70;;;;;;4387562;32;20069;-33
2021/04/24 01:51:16;;;;;;;20.40;8.20;;;14.10;48.80;;;;;;4386692;32;20089;-37
2021/04/24 01:53:42;;;;;;;28.02;11.70;;;14.10;48.70;;;;;;4388429;32;20145;-32
2021/04/24 01:56:09;;;;;;;29.63;10.77;;;14.10;48.80;;;;;;4388192;32;20093;-32
2021/04/24 01:58:36;;;;;;;25.67;11.88;;;14.10;48.90;;;;;;4388591;32;20321;-33
2021/04/24 02:01:11;;;;;;;23.75;9.93;;;14.10;49.00;;;;;;4388035;32;20093;-32
2021/04/24 02:03:37;;;;;;;21.52;8.80;;;14.10;49.10;;;;;;4388274;32;20595;-32
2021/04/24 02:06:04;;;;;;;26.80;12.20;;;14.00;49.10;;;;;;4388194;32;20134;-32
2021/04/24 02:08:43;;;;;;;27.67;11.57;;;14.10;49.00;;;;;;4388401;32;20114;-32
2021/04/24 02:11:10;;;;;;;25.12;10.52;;;14.00;49.10;;;;;;4388442;32;20076;-33
2021/04/24 02:13:40;;;;;;;23.87;9.70;;;14.00;49.20;;;;;;4388180;32;20074;-32
2021/04/24 02:16:11;;;;;;;26.37;10.02;;;14.10;49.40;;;;;;4386798;32;20166;-32
2021/04/24 02:18:37;;;;;;;21.05;7.15;;;14.00;49.40;;;;;;4388502;32;20072;-33
2021/04/24 02:21:05;;;;;;;26.73;10.52;;;14.10;49.60;;;;;;4386372;32;20070;-32
2021/04/24 02:23:35;;;;;;;28.65;13.90;;;14.10;49.40;;;;;;4380408;32;20090;-33
2021/04/24 02:26:02;;;;;;;26.45;10.98;;;14.20;49.40;;;;;;4372877;32;20062;-32
2021/04/24 02:28:29;;;;;;;22.55;8.68;;;14.20;49.40;;;;;;4372974;32;20093;-33
2021/04/24 02:30:55;;;;;;;22.55;9.48;;;14.30;49.40;;;;;;4373291;32;20060;-34
2021/04/24 02:33:22;;;;;;;21.58;9.27;;;14.30;49.30;;;;;;4373240;32;20126;-33
2021/04/24 02:35:53;;;;;;;20.10;9.65;;;14.40;49.10;;;;;;4371516;32;20072;-32
2021/04/24 02:38:31;;;;;;;19.98;9.15;;;14.40;49.10;;;;;;4373084;32;20078;-32
2021/04/24 02:41:01;;;;;;;21.85;9.02;;;14.50;49.00;;;;;;4373268;32;20169;-33
2021/04/24 02:43:27;;;;;;;16.25;6.97;;;14.50;49.00;;;;;;4373340;32;20073;-32
2021/04/24 02:45:54;;;;;;;21.83;8.55;;;14.60;48.90;;;;;;4372828;32;20533;-32
2021/04/24 02:48:20;;;;;;;20.45;8.48;;;14.60;49.00;;;;;;4373346;32;20463;-34
2021/04/24 02:50:47;;;;;;;20.90;8.40;;;14.70;48.80;;;;;;4376047;32;20109;-33
2021/04/24 02:53:14;;;;;;;26.25;8.27;;;14.80;48.70;;;;;;4375729;32;20151;-34
2021/04/24 02:55:41;;;;;;;18.08;8.45;;;14.90;48.60;;;;;;4374578;32;20541;-33
2021/04/24 02:58:07;;;;;;;21.00;8.23;;;15.00;48.50;;;;;;4375693;32;20077;-32
2021/04/24 03:00:34;;;;;;;17.75;9.75;;;15.00;48.30;;;;;;4376115;32;20079;-33
2021/04/24 03:03:07;;;;;;;23.02;10.07;;;15.10;48.20;;;;;;4374005;32;20097;-32
2021/04/24 03:05:34;;;;;;;23.42;9.18;;;15.10;48.10;;;;;;4375535;32;20128;-34
2021/04/24 03:08:02;;;;;;;20.67;11.18;;;15.20;48.00;;;;;;4375778;32;20062;-35
2021/04/24 03:10:28;;;;;;;20.73;10.05;;;15.30;47.90;;;;;;4375730;32;20103;-34
2021/04/24 03:12:55;;;;;;;19.40;9.32;;;15.30;47.70;;;;;;4374076;32;20503;-32
2021/04/24 03:15:21;;;;;;;25.30;12.23;;;15.30;47.50;;;;;;4375550;32;20101;-33
2021/04/24 03:17:49;;;;;;;24.15;11.77;;;15.40;47.50;;;;;;4374080;32;20502;-33
2021/04/24 03:20:16;;;;;;;24.05;13.52;;;15.50;47.50;;;;;;4375689;32;20081;-32
2021/04/24 03:22:43;;;;;;;22.60;12.32;;;15.50;47.30;;;;;;4377867;32;20162;-35
2021/04/24 03:25:10;;;;;;;25.42;13.27;;;15.60;47.20;;;;;;4390325;32;20555;-36
2021/04/24 03:27:37;;;;;;;26.10;12.90;;;15.60;47.20;;;;;;4390602;32;20092;-32
2021/04/24 03:30:09;;;;;;;25.83;13.20;;;15.70;47.10;;;;;;4387703;32;20089;-32
2021/04/24 03:32:36;;;;;;;30.92;14.87;;;15.70;47.00;;;;;;4387911;32;20603;-32
2021/04/24 03:35:03;;;;;;;25.33;13.93;;;15.80;46.80;;;;;;4387902;32;20509;-33
2021/04/24 03:37:29;;;;;;;33.25;17.27;;;15.80;46.70;;;;;;4387611;32;20066;-33
2021/04/24 03:39:56;;;;;;;32.95;18.45;;;15.90;46.70;;;;;;4387880;32;20060;-32
2021/04/24 03:42:22;;;;;;;29.35;15.05;;;15.90;46.60;;;;;;4387836;32;20489;-33
2021/04/24 03:44:49;;;;;;;27.70;15.93;;;16.00;46.60;;;;;;4387693;32;20691;-33
2021/04/24 03:47:15;;;;;;;27.02;16.75;;;16.10;46.50;;;;;;4387922;32;20057;-33
2021/04/24 03:49:42;;;;;;;29.12;16.48;;;16.00;46.40;;;;;;4387494;32;20084;-32
2021/04/24 03:52:08;;;;;;;22.55;12.88;;;16.00;46.50;;;;;;4387828;32;20157;-34
2021/04/24 03:54:35;;;;;;;28.42;16.08;;;16.00;46.60;;;;;;4387720;32;20077;-33
2021/04/24 03:57:02;;;;;;;36.10;17.77;;;16.10;46.70;;;;;;4374960;32;20229;-33
2021/04/24 03:59:28;;;;;;;33.45;17.40;;;16.20;46.70;;;;;;4387918;32;20071;-34
2021/04/24 04:01:54;;;;;;;29.12;15.68;;;16.30;46.60;;;;;;4385998;32;20054;-34
2021/04/24 04:04:21;;;;;;;28.27;16.92;;;16.40;46.30;;;;;;4390278;32;20106;-33
2021/04/24 04:06:47;;;;;;;37.83;20.85;;;16.50;46.00;;;;;;4389625;32;20080;-33
2021/04/24 04:09:14;;;;;;;29.92;16.33;;;16.70;45.70;;;;;;4389591;32;20568;-33
2021/04/24 04:11:40;;;;;;;28.90;17.48;;;16.80;45.50;;;;;;4390220;32;20077;-33
2021/04/24 04:14:07;;;;;;;17.62;9.40;;;17.10;45.40;;;;;;4389585;32;20251;-34
2021/04/24 04:16:33;;;;;;;19.40;11.80;;;17.20;45.30;;;;;;4389884;32;20149;-33
2021/04/24 04:19:00;;;;;;;20.70;12.63;;;17.40;44.60;;;;;;4390050;32;20053;-34
2021/04/24 04:21:28;;;;;;;18.15;10.35;;;17.60;44.10;;;;;;4390303;32;20606;-33
2021/04/24 04:23:55;;;;;;;11.73;6.37;;;17.70;43.80;;;;;;4379784;32;20169;-35
2021/04/24 04:26:21;;;;;;;16.70;11.07;;;17.80;43.20;;;;;;4374836;32;20511;-33
2021/04/24 04:28:47;;;;;;;14.90;10.52;;;17.90;42.80;;;;;;4374412;32;20097;-37
2021/04/24 04:31:14;;;;;;;13.98;9.30;;;18.00;42.80;;;;;;4374650;32;20086;-34
2021/04/24 04:33:40;;;;;;;10.07;8.25;;;18.10;42.80;;;;;;4374389;32;20070;-34
2021/04/24 04:36:07;;;;;;;10.27;6.45;;;18.40;42.70;;;;;;4374750;32;20526;-33
2021/04/24 04:38:33;;;;;;;11.00;6.97;;;18.70;42.00;;;;;;4374433;32;20070;-33
2021/04/24 04:41:00;;;;;;;8.38;6.87;;;18.90;41.40;;;;;;4374247;32;20081;-34
2021/04/24 04:43:27;;;;;;;7.43;5.97;;;19.10;40.80;;;;;;4374294;32;20067;-35
2021/04/24 04:45:53;;;;;;;7.47;5.05;;;19.10;40.20;;;;;;4373922;32;20094;-35
2021/04/24 04:48:20;;;;;;;7.55;4.87;;;19.10;40.10;;;;;;4374403;32;20085;-37
2021/04/24 04:50:46;;;;;;;6.12;5.45;;;19.10;39.80;;;;;;4374178;32;20179;-38
2021/04/24 04:53:13;;;;;;;10.50;5.53;;;19.10;39.70;;;;;;4373968;32;20069;-39
2021/04/24 04:55:39;;;;;;;7.57;6.00;;;19.10;40.10;;;;;;4372383;32;20183;-38
2021/04/24 04:58:06;;;;;;;8.38;5.93;;;19.10;39.80;;;;;;4373805;32;20151;-38
2021/04/24 05:00:32;;;;;;;9.85;7.87;;;19.10;39.90;;;;;;4374562;32;20059;-38
2021/04/24 05:02:59;;;;;;;8.45;7.45;;;19.10;40.20;;;;;;4374311;32;20569;-38
2021/04/24 05:05:25;;;;;;;9.90;7.78;;;19.10;39.60;;;;;;4372686;32;20066;-34
2021/04/24 05:07:52;;;;;;;11.43;8.00;;;19.10;39.60;;;;;;4374053;32;20073;-34
2021/04/24 05:10:22;;;;;;;7.85;4.78;;;19.20;39.70;;;;;;4373743;32;20128;-35
2021/04/24 05:12:49;;;;;;;11.30;8.57;;;19.30;39.80;;;;;;4373369;32;20141;-34
2021/04/24 05:15:16;;;;;;;14.87;11.85;;;19.40;39.60;;;;;;4373513;32;20069;-34
2021/04/24 05:17:42;;;;;;;11.68;5.80;;;19.50;39.50;;;;;;4374000;32;20154;-34
2021/04/24 05:20:09;;;;;;;16.60;10.52;;;19.60;39.60;;;;;;4372325;32;20085;-34
2021/04/24 05:22:36;;;;;;;13.30;10.32;;;19.70;38.80;;;;;;4375226;32;20508;-34
2021/04/24 05:25:04;;;;;;;7.62;4.82;;;19.80;39.60;;;;;;4389065;32;20153;-34
2021/04/24 05:27:31;;;;;;;6.43;3.90;;;20.00;38.40;;;;;;4389098;32;20168;-36
2021/04/24 05:29:58;;;;;;;7.32;4.45;;;20.20;37.90;;;;;;4388645;32;20054;-35
2021/04/24 05:32:25;;;;;;;21.10;6.47;;;20.30;37.40;;;;;;4388680;32;20073;-39
2021/04/24 05:34:52;;;;;;;12.27;6.72;;;20.30;37.30;;;;;;4387283;32;20157;-37
2021/04/24 05:37:18;;;;;;;13.62;6.62;;;20.30;37.20;;;;;;4388614;32;20430;-37
2021/04/24 05:39:45;;;;;;;10.35;5.37;;;20.30;37.30;;;;;;4388580;32;20077;-39
2021/04/24 05:42:11;;;;;;;6.75;4.75;;;20.20;37.30;;;;;;4388630;32;20073;-35
2021/04/24 05:44:39;;;;;;;9.00;4.28;;;20.20;37.30;;;;;;4388636;32;20522;-36
2021/04/24 05:47:06;;;;;;;8.75;5.30;;;20.20;37.40;;;;;;4388589;32;20091;-36
2021/04/24 05:49:33;;;;;;;20.15;4.87;;;20.00;37.50;;;;;;4388754;32;20126;-38
2021/04/24 05:52:01;;;;;;;11.20;5.12;;;20.00;37.60;;;;;;4388369;32;20065;-39
2021/04/24 05:54:27;;;;;;;9.48;4.75;;;19.80;37.80;;;;;;4388393;32;20120;-35
2021/04/24 05:56:54;;;;;;;11.10;5.30;;;19.80;38.00;;;;;;4386628;32;20077;-35
2021/04/24 05:59:20;;;;;;;11.38;5.95;;;19.70;38.20;;;;;;4388024;32;20557;-39
2021/04/24 06:01:47;;;;;;;11.98;5.35;;;19.60;38.20;;;;;;4387938;32;20477;-39
2021/04/24 06:04:14;;;;;;;9.23;4.60;;;19.60;38.50;;;;;;4388092;32;20500;-38
2021/04/24 06:06:40;;;;;;;12.65;5.60;;;19.50;38.40;;;;;;4386866;32;20073;-38
2021/04/24 06:09:07;;;;;;;11.95;5.50;;;19.60;38.50;;;;;;4388021;32;20077;-36
2021/04/24 06:11:34;;;;;;;10.85;4.75;;;19.50;38.50;;;;;;4388432;32;20097;-40
2021/04/24 06:14:02;;;;;;;5.97;4.00;;;19.50;38.60;;;;;;4386544;32;20185;-36
2021/04/24 06:16:30;;;;;;;8.60;4.82;;;19.40;38.70;;;;;;4388387;32;20084;-35
2021/04/24 06:18:56;;;;;;;8.25;4.55;;;19.40;38.80;;;;;;4386616;32;20070;-35
2021/04/24 06:21:23;;;;;;;12.88;5.45;;;19.30;38.90;;;;;;4388002;32;20548;-36
2021/04/24 06:23:49;;;;;;;15.65;5.10;;;19.20;39.10;;;;;;4378809;32;20074;-35
2021/04/24 06:26:16;;;;;;;12.50;6.28;;;19.10;39.20;;;;;;4373202;32;20051;-36
2021/04/24 06:28:42;;;;;;;17.77;6.47;;;19.10;39.30;;;;;;4372931;32;20521;-37
2021/04/24 06:31:09;;;;;;;12.95;7.37;;;19.00;39.20;;;;;;4371559;32;20174;-35
2021/04/24 06:33:35;;;;;;;19.20;8.10;;;18.90;38.90;;;;;;4373226;32;20077;-39
2021/04/24 06:36:02;;;;;;;18.37;9.48;;;18.80;39.00;;;;;;4372817;32;20085;-39
2021/04/24 06:38:28;;;;;;;25.52;11.40;;;18.60;39.00;;;;;;4373098;32;20085;-36
2021/04/24 06:40:55;;;;;;;24.27;12.15;;;18.30;39.30;;;;;;4372956;32;20572;-35
2021/04/24 06:43:21;;;;;;;18.90;10.40;;;18.10;39.70;;;;;;4371826;32;20062;-36
2021/04/24 06:45:48;;;;;;;19.60;10.43;;;17.80;40.10;;;;;;4372604;32;20477;-35
2021/04/24 06:48:14;;;;;;;15.88;10.02;;;17.60;40.40;;;;;;4372606;32;20174;-34
2021/04/24 06:50:41;;;;;;;21.00;10.55;;;17.40;40.70;;;;;;4371123;32;20090;-35
2021/04/24 06:53:07;;;;;;;15.77;9.82;;;17.10;41.10;;;;;;4372607;32;20089;-40
2021/04/24 06:55:34;;;;;;;24.73;9.25;;;16.90;41.70;;;;;;4372666;32;20190;-36
2021/04/24 06:58:00;;;;;;;31.08;10.48;;;16.60;42.20;;;;;;4372707;32;20082;-37
2021/04/24 07:00:27;;;;;;;22.65;10.63;;;16.50;42.90;;;;;;4372608;32;20178;-37
2021/04/24 07:02:53;;;;;;;22.58;9.20;;;16.40;43.30;;;;;;4372781;32;20063;-35
2021/04/24 07:05:20;;;;;;;15.68;8.30;;;16.40;43.80;;;;;;4371255;32;20159;-36
2021/04/24 07:07:47;;;;;;;20.55;9.88;;;16.50;43.90;;;;;;4373082;32;20074;-36
2021/04/24 07:10:14;;;;;;;8.75;6.45;;;16.60;43.90;;;;;;4372447;32;20101;-38
2021/04/24 07:12:41;;;;;;;27.67;8.25;;;16.80;43.90;;;;;;4372438;32;20159;-35
2021/04/24 07:15:08;;;;;;;13.05;7.30;;;17.00;43.60;;;;;;4371129;32;20104;-37
2021/04/24 07:17:35;;;;;;;15.38;8.52;;;17.20;43.30;;;;;;4372520;32;20556;-36
2021/04/24 07:20:03;;;;;;;18.17;8.30;;;17.30;43.10;;;;;;4372600;32;20122;-37
2021/04/24 07:22:29;;;;;;;12.55;8.85;;;17.40;42.90;;;;;;4373097;32;20062;-35
2021/04/24 07:24:56;;;;;;;13.02;8.48;;;17.50;42.80;;;;;;4387784;32;20147;-35
2021/04/24 07:27:22;;;;;;;16.70;6.85;;;17.50;42.80;;;;;;4387843;32;20222;-37
2021/04/24 07:29:49;;;;;;;14.38;7.97;;;17.70;42.80;;;;;;4387543;32;20478;-36
2021/04/24 07:32:15;;;;;;;14.40;8.30;;;17.80;42.50;;;;;;4387431;32;20094;-35
2021/04/24 07:34:41;;;;;;;17.25;7.47;;;17.80;42.50;;;;;;4387829;32;20081;-36
2021/04/24 07:37:08;;;;;;;8.88;6.53;;;17.90;42.40;;;;;;4390122;32;20468;-36
2021/04/24 07:39:35;;;;;;;18.25;7.30;;;17.90;42.30;;;;;;4390278;32;20078;-38
2021/04/24 07:42:01;;;;;;;11.05;6.28;;;18.00;42.30;;;;;;4390353;32;20049;-36
2021/04/24 07:44:27;;;;;;;11.35;5.85;;;18.10;42.20;;;;;;4389686;32;20061;-36
2021/04/24 07:46:54;;;;;;;11.30;5.90;;;18.20;41.90;;;;;;4371875;32;20101;-37
2021/04/24 07:49:21;;;;;;;15.65;6.95;;;18.20;41.70;;;;;;4372362;32;20069;-39
2021/04/24 07:51:47;;;;;;;8.93;6.20;;;18.30;41.80;;;;;;4372527;32;20152;-37
2021/04/24 07:54:15;;;;;;;8.48;5.03;;;18.30;41.70;;;;;;4372804;32;20169;-37
2021/04/24 07:56:42;;;;;;;32.88;14.20;;;18.40;41.60;;;;;;4373176;32;20076;-37
2021/04/24 07:59:10;;;;;;;14.65;6.15;;;18.50;41.60;;;;;;4372067;32;20176;-37
2021/04/24 08:01:38;;;;;;;7.72;4.93;;;18.60;41.60;;;;;;4372685;32;20086;-40
2021/04/24 08:04:06;;;;;;;13.55;6.40;;;18.80;41.30;;;;;;4372407;32;20090;-37
2021/04/24 08:06:36;;;;;;;7.07;4.32;;;19.10;41.10;;;;;;4372280;32;20626;-40
2021/04/24 08:09:04;;;;;;;10.55;5.30;;;19.30;40.70;;;;;;4372040;32;20080;-39
2021/04/24 08:11:32;;;;;;;9.32;4.15;;;19.60;40.20;;;;;;4347744;32;20062;-38
2021/04/24 08:13:58;;;;;;;10.05;4.45;;;19.90;39.80;;;;;;4372417;32;20089;-37
2021/04/24 08:16:25;;;;;;;7.57;4.43;;;20.20;39.20;;;;;;4371884;32;20117;-40
2021/04/24 08:18:52;;;;;;;4.55;3.58;;;20.40;38.80;;;;;;4372507;32;20094;-39
2021/04/24 08:21:19;;;;;;;11.55;4.47;;;20.70;38.30;;;;;;4371865;32;20076;-37
2021/04/24 08:23:46;;;;;;;13.02;4.45;;;20.80;37.70;;;;;;4367615;32;20061;-36
2021/04/24 08:26:13;;;;;;;12.18;5.03;;;21.00;37.80;;;;;;4374284;32;20070;-37
2021/04/24 08:28:39;;;;;;;7.85;4.07;;;21.20;37.50;;;;;;4374657;32;20066;-38
2021/04/24 08:31:06;;;;;;;7.07;3.53;;;21.40;37.30;;;;;;4374658;32;20128;-38
2021/04/24 08:33:32;;;;;;;4.10;2.87;;;21.80;36.90;;;;;;4374347;32;20097;-38
2021/04/24 08:35:58;;;;;;;12.77;4.20;;;22.10;36.10;;;;;;4374652;32;20098;-40
2021/04/24 08:38:25;;;;;;;4.22;2.55;;;22.40;35.60;;;;;;4374377;32;20082;-37
2021/04/24 08:40:52;;;;;;;5.05;3.12;;;22.70;35.00;;;;;;4374231;32;20066;-39
2021/04/24 08:43:18;;;;;;;9.00;2.75;;;22.90;34.20;;;;;;4374496;32;20518;-37
2021/04/24 08:45:45;;;;;;;4.37;3.15;;;23.10;33.80;;;;;;4360437;32;20082;-40
2021/04/24 08:48:11;;;;;;;8.10;3.28;;;23.30;33.20;;;;;;4360093;32;20146;-39
2021/04/24 08:50:38;;;;;;;4.32;3.70;;;23.30;33.10;;;;;;4373772;32;20196;-41
2021/04/24 08:53:05;;;;;;;7.55;3.20;;;23.20;32.80;;;;;;4374221;32;20089;-37
2021/04/24 08:55:38;;;;;;;4.20;2.60;;;23.00;32.80;;;;;;4374147;32;20083;-40
2021/04/24 08:58:06;;;;;;;7.40;2.58;;;22.90;33.20;;;;;;4374351;32;20158;-39
2021/04/24 09:00:37;;;;;;;11.23;3.22;;;22.90;33.40;;;;;;4373927;32;20058;-40
2021/04/24 09:03:06;;;;;;;11.68;4.20;;;22.90;33.20;;;;;;4374309;32;20143;-42
2021/04/24 09:05:32;;;;;;;6.15;4.32;;;22.90;33.40;;;;;;4374020;32;20062;-40
2021/04/24 09:08:03;;;;;;;7.07;4.37;;;22.80;32.90;;;;;;4373317;32;20534;-40
2021/04/24 09:10:42;;;;;;;3.42;2.92;;;22.70;33.30;;;;;;4374120;32;20078;-37
2021/04/24 09:13:10;;;;;;;6.75;3.30;;;22.50;33.50;;;;;;4372511;32;20144;-37
2021/04/24 09:15:36;;;;;;;8.30;4.43;;;22.40;33.60;;;;;;4374167;32;20097;-38
2021/04/24 09:18:07;;;;;;;5.85;3.70;;;22.30;33.90;;;;;;4374019;32;20182;-37
2021/04/24 09:20:49;;;;;;;4.90;3.15;;;22.40;34.10;;;;;;4374199;32;20097;-40
2021/04/24 09:23:18;;;;;;;4.15;3.53;;;22.50;33.80;;;;;;4372708;32;20066;-37
2021/04/24 09:25:51;;;;;;;5.20;2.33;;;22.90;33.40;;;;;;4372485;32;20149;-40
2021/04/24 09:28:45;;;;;;;4.20;2.72;;;23.30;33.00;;;;;;4374175;32;20119;-39
2021/04/24 09:31:20;;;;;;;6.43;2.20;;;23.70;32.50;;;;;;4373917;32;20073;-39
2021/04/24 09:33:50;;;;;;;3.28;1.90;;;24.10;31.60;;;;;;4373855;32;20202;-41
2021/04/24 09:36:17;;;;;;;3.95;1.12;;;24.50;31.40;;;;;;4373910;32;20533;-39
2021/04/24 09:38:49;;;;;;;3.30;1.17;;;24.80;30.60;;;;;;4373504;32;20088;-41
2021/04/24 09:41:28;;;;;;;4.28;1.30;;;25.20;29.90;;;;;;4371983;32;20059;-37
2021/04/24 09:44:12;;;;;;;2.83;1.10;;;25.60;29.40;;;;;;4370882;32;20564;-41
2021/04/24 09:46:58;;;;;;;1.77;1.00;;;25.80;29.30;;;;;;4371032;32;20098;-41
2021/04/24 09:49:27;;;;;;;3.62;0.90;;;26.00;29.10;;;;;;4370988;32;20155;-42
2021/04/24 09:51:56;;;;;;;1.83;0.80;;;26.10;28.60;;;;;;4371140;32;20068;-40
2021/04/24 09:54:25;;;;;;;2.22;0.55;;;26.20;28.50;;;;;;4370782;32;20104;-41
2021/04/24 09:57:00;;;;;;;2.05;0.70;;;26.30;28.30;;;;;;4358823;32;20073;-40
2021/04/24 09:59:27;;;;;;;2.03;1.15;;;26.30;28.20;;;;;;4370262;32;20080;-43
2021/04/24 10:02:07;;;;;;;8.55;1.37;;;26.50;28.10;;;;;;4370682;32;20082;-43
2021/04/24 10:04:34;;;;;;;5.15;2.33;;;26.70;28.00;;;;;;4370745;32;20541;-43
2021/04/24 10:07:00;;;;;;;4.05;1.73;;;26.80;28.00;;;;;;4370793;32;20097;-42
2021/04/24 10:09:31;;;;;;;5.25;0.77;;;27.00;28.20;;;;;;4370495;32;20061;-42
2021/04/24 10:12:00;;;;;;;3.95;1.00;;;27.10;27.60;;;;;;4370536;32;20070;-43
2021/04/24 10:14:44;;;;;;;0.93;0.75;;;27.10;27.50;;;;;;4344651;32;20128;-43
2021/04/24 10:17:15;;;;;;;4.03;0.70;;;27.00;27.80;;;;;;4343236;32;20436;-43
2021/04/24 10:19:43;;;;;;;3.97;0.93;;;27.20;27.70;;;;;;4355503;32;20652;-43
2021/04/24 10:22:15;;;;;;;1.45;0.70;;;27.30;27.80;;;;;;4355610;32;20665;-41
2021/04/24 10:24:41;;;;;;;2.85;1.70;;;27.40;27.30;;;;;;4355285;32;20066;-42
2021/04/24 10:27:16;;;;;;;2.92;1.15;;;27.30;27.00;;;;;;4355728;32;20131;-42
2021/04/24 10:29:43;;;;;;;0.73;0.70;;;27.10;27.20;;;;;;4355611;32;20063;-43
2021/04/24 10:32:10;;;;;;;7.07;1.30;;;26.90;27.50;;;;;;4355482;32;20081;-43
2021/04/24 10:34:37;;;;;;;1.23;0.65;;;26.80;27.70;;;;;;4355997;32;20153;-44
2021/04/24 10:37:04;;;;;;;2.08;0.80;;;26.90;27.60;;;;;;4355735;32;20078;-41
2021/04/24 10:39:36;;;;;;;4.47;0.93;;;27.10;27.50;;;;;;4355372;32;20057;-44
2021/04/24 10:42:20;;;;;;;3.83;0.70;;;27.30;27.50;;;;;;4355627;32;20062;-44
2021/04/24 10:44:53;;;;;;;1.52;0.82;;;27.50;27.20;;;;;;4359270;32;20141;-42
2021/04/24 10:47:45;;;;;;;3.55;1.00;;;27.60;26.90;;;;;;4373235;32;20137;-43
2021/04/24 10:50:18;;;;;;;1.98;1.08;;;27.70;27.20;;;;;;4372634;32;20066;-42
2021/04/24 10:52:45;;;;;;;2.15;0.80;;;27.70;26.70;;;;;;4371381;32;20098;-43
2021/04/24 10:55:17;;;;;;;1.10;0.70;;;27.80;26.90;;;;;;4372770;32;20071;-43
2021/04/24 10:57:44;;;;;;;1.15;0.70;;;27.80;26.60;;;;;;4372949;32;20061;-44
2021/04/24 11:00:32;;;;;;;1.00;0.65;;;27.70;26.50;;;;;;4372675;32;20157;-44
2021/04/24 11:03:00;;;;;;;2.65;0.90;;;27.90;26.80;;;;;;4371420;32;20155;-43
2021/04/24 11:05:34;;;;;;;4.70;0.80;;;28.10;26.40;;;;;;4372986;32;20078;-41
2021/04/24 11:08:20;;;;;;;2.17;0.65;;;28.20;26.20;;;;;;4372977;32;20067;-44
2021/04/24 11:11:08;;;;;;;5.18;0.90;;;27.90;26.10;;;;;;4374652;32;20074;-44
2021/04/24 11:13:41;;;;;;;1.77;0.70;;;27.80;26.40;;;;;;4374161;32;20514;-44
2021/04/24 11:16:10;;;;;;;1.95;0.70;;;27.80;26.40;;;;;;4375574;32;20514;-44
2021/04/24 11:18:37;;;;;;;1.27;0.60;;;27.90;26.40;;;;;;4375810;32;20077;-43
2021/04/24 11:21:12;;;;;;;0.60;0.57;;;28.00;26.20;;;;;;4375689;32;20572;-43
2021/04/24 11:23:42;;;;;;;;;;;28.40;26.00;;;;;;4375286;32;20146;-43
2021/04/24 11:26:20;;;;;;;2.12;1.23;;;28.60;26.20;;;;;;4375655;32;20376;-44
2021/04/24 11:29:12;;;;;;;9.27;0.98;;;28.80;25.80;;;;;;4375645;32;20078;-44
2021/04/24 11:31:57;;;;;;;2.55;0.88;;;28.90;25.80;;;;;;4375356;32;20166;-43
2021/04/24 11:34:43;;;;;;;4.20;3.00;;;29.10;25.70;;;;;;4375646;32;20101;-42
2021/04/24 11:37:18;;;;;;;2.28;0.70;;;29.30;25.50;;;;;;4373466;32;20143;-43
2021/04/24 11:40:23;;;;;;;1.17;0.60;;;29.40;25.40;;;;;;4375284;32;20070;-44
2021/04/24 11:43:08;;;;;;;0.77;0.77;;;29.40;25.40;;;;;;4375524;32;20068;-44
2021/04/24 11:45:59;;;;;;;4.62;0.88;;;29.40;25.30;;;;;;4373814;32;20063;-43
2021/04/24 11:48:44;;;;;;;3.78;0.70;;;29.40;25.50;;;;;;4374149;32;20547;-44
2021/04/24 11:51:17;;;;;;;0.82;0.57;;;29.30;25.40;;;;;;4374895;32;20066;-44
2021/04/24 11:53:46;;;;;;;3.12;0.80;;;29.20;25.30;;;;;;4361670;32;20058;-44
2021/04/24 11:56:17;;;;;;;0.70;0.60;;;29.20;25.30;;;;;;4372168;32;20069;-43
2021/04/24 11:58:44;;;;;;;0.95;0.60;;;29.20;25.30;;;;;;4372811;32;20062;-42
2021/04/24 12:01:21;;;;;;;1.85;0.77;;;29.20;25.40;;;;;;4372521;32;20554;-42
2021/04/24 12:03:48;;;;;;;2.65;0.70;;;29.10;25.40;;;;;;4372859;32;20576;-43
2021/04/24 12:06:14;;;;;;;1.17;0.80;;;29.10;25.30;;;;;;4372113;32;20603;-43
2021/04/24 12:08:41;;;;;;;1.10;0.90;;;29.00;25.40;;;;;;4372217;32;20138;-43
2021/04/24 12:11:11;;;;;;;6.07;1.05;;;28.90;25.40;;;;;;4372265;32;20096;-43
2021/04/24 12:13:37;;;;;;;10.38;1.62;;;28.90;25.60;;;;;;4372472;32;20139;-43
2021/04/24 12:16:04;;;;;;;1.95;0.80;;;28.70;25.70;;;;;;4372646;32;20519;-43
2021/04/24 12:18:31;;;;;;;4.45;0.80;;;28.50;25.80;;;;;;4372162;32;20459;-42
2021/04/24 12:20:57;;;;;;;2.00;1.02;;;28.30;26.00;;;;;;4371848;32;20157;-42
2021/04/24 12:23:24;;;;;;;1.33;1.10;;;28.00;26.00;;;;;;4348607;32;20482;-43
2021/04/24 12:25:51;;;;;;;4.18;1.20;;;27.70;26.20;;;;;;4356914;32;20081;-44
2021/04/24 12:28:19;;;;;;;1.42;0.93;;;27.30;26.50;;;;;;4357281;32;20482;-42
2021/04/24 12:30:47;;;;;;;4.90;1.70;;;26.90;26.70;;;;;;4356671;32;20612;-43
2021/04/24 12:33:16;;;;;;;8.48;1.60;;;26.40;27.10;;;;;;4352584;32;20534;-43
2021/04/24 12:35:48;;;;;;;6.28;1.95;;;26.10;27.40;;;;;;4342803;33;20158;-43
2021/04/24 12:38:20;;;;;;;4.95;1.50;;;25.90;27.70;;;;;;4330113;33;20090;-42
2021/04/24 12:40:55;;;;;;;2.20;1.50;;;25.70;28.00;;;;;;4342347;33;20192;-43
2021/04/24 12:43:26;;;;;;;4.15;1.30;;;25.70;28.10;;;;;;4341880;33;20070;-42
2021/04/24 12:45:59;;;;;;;5.93;1.90;;;25.60;28.00;;;;;;4329927;33;20161;-40
2021/04/24 12:48:33;;;;;;;4.90;1.35;;;25.60;28.10;;;;;;4329947;33;20153;-42